Time;durP1;ratioP1;P1;durP2;ratioP2;P2;SDS_P1;SDS_P2;PMS_P1;PMS_P2;Temp;Humidity;BMP_temperature;BMP_pressure;BME280_temperature;BME280_humidity;BME280_pressure;Samples;Min_cycle;Max_cycle;Signal;HPM_P1;HPM_P2
2023/10/17 00:01:35;;;;;;;10.35;4.93;;;7.40;99.90;;;;;;5039240;28;20040;-67
2023/10/17 00:04:11;;;;;;;10.70;5.32;;;7.40;99.90;;;;;;5044341;28;20055;-67
2023/10/17 00:06:37;;;;;;;13.77;5.15;;;7.30;99.90;;;;;;5053247;28;20052;-67
2023/10/17 00:09:06;;;;;;;10.00;5.28;;;7.30;99.90;;;;;;5042939;28;20037;-67
2023/10/17 00:11:44;;;;;;;9.95;5.10;;;7.30;99.90;;;;;;5035700;28;20045;-68
2023/10/17 00:14:11;;;;;;;10.70;5.30;;;7.30;99.90;;;;;;5049796;28;20041;-68
2023/10/17 00:16:37;;;;;;;9.40;5.68;;;7.30;99.90;;;;;;5052391;28;20450;-67
2023/10/17 00:19:05;;;;;;;9.18;5.13;;;7.30;99.90;;;;;;5049167;28;20079;-67
2023/10/17 00:21:32;;;;;;;8.30;5.10;;;7.30;99.90;;;;;;5044658;28;20025;-68
2023/10/17 00:24:01;;;;;;;11.32;5.45;;;7.30;99.90;;;;;;5052397;28;20120;-67
2023/10/17 00:26:26;;;;;;;13.95;5.20;;;7.20;99.90;;;;;;5043467;28;20040;-68
2023/10/17 00:28:53;;;;;;;16.10;5.88;;;7.20;99.90;;;;;;5053302;28;20518;-67
2023/10/17 00:31:21;;;;;;;9.77;4.72;;;7.20;99.90;;;;;;5045684;28;20558;-68
2023/10/17 00:33:57;;;;;;;10.40;5.43;;;7.20;99.90;;;;;;5051359;28;20040;-67
2023/10/17 00:36:23;;;;;;;9.95;5.50;;;7.20;99.90;;;;;;5052378;28;20043;-67
2023/10/17 00:38:49;;;;;;;10.05;5.85;;;7.20;99.90;;;;;;5048693;28;20400;-67
2023/10/17 00:41:29;;;;;;;11.70;5.60;;;7.20;99.90;;;;;;5041233;28;20025;-67
2023/10/17 00:43:54;;;;;;;11.43;5.43;;;7.20;99.90;;;;;;5040670;28;20041;-67
2023/10/17 00:46:20;;;;;;;13.57;5.40;;;7.10;99.90;;;;;;5046778;28;20033;-67
2023/10/17 00:48:48;;;;;;;9.48;5.28;;;7.10;99.90;;;;;;5036833;28;20037;-67
2023/10/17 00:51:19;;;;;;;9.20;4.78;;;7.10;99.90;;;;;;5038972;28;20073;-68
2023/10/17 00:53:46;;;;;;;11.60;5.10;;;7.10;99.90;;;;;;5045631;28;20045;-67
2023/10/17 00:56:13;;;;;;;11.45;5.22;;;7.10;99.90;;;;;;5044136;28;20272;-67
2023/10/17 00:58:39;;;;;;;8.75;5.07;;;7.10;99.90;;;;;;5041968;28;20037;-67
2023/10/17 01:01:16;;;;;;;10.38;5.13;;;7.10;99.90;;;;;;5037451;28;20033;-67
2023/10/17 01:03:45;;;;;;;8.20;4.63;;;7.00;99.90;;;;;;5044948;28;20087;-67
2023/10/17 01:06:36;;;;;;;7.55;4.68;;;7.00;99.90;;;;;;5047869;28;20029;-67
2023/10/17 01:09:08;;;;;;;7.38;4.32;;;7.00;99.90;;;;;;5047001;28;20044;-67
2023/10/17 01:11:38;;;;;;;7.05;4.72;;;7.00;99.90;;;;;;5092369;22;20385;-77
2023/10/17 01:14:05;;;;;;;7.10;4.20;;;7.10;99.90;;;;;;5070949;28;20115;-77
2023/10/17 01:16:36;;;;;;;9.55;4.55;;;7.00;99.90;;;;;;5072829;28;20107;-77
2023/10/17 01:19:04;;;;;;;7.57;4.28;;;7.00;99.90;;;;;;5071383;28;20044;-77
2023/10/17 01:21:42;;;;;;;8.98;4.22;;;7.00;99.90;;;;;;5023693;28;20045;-64
2023/10/17 01:24:08;;;;;;;8.35;4.60;;;7.00;99.90;;;;;;5026446;28;20459;-64
2023/10/17 01:26:44;;;;;;;10.60;4.20;;;7.00;99.90;;;;;;5035151;28;20049;-64
2023/10/17 01:29:11;;;;;;;8.65;4.07;;;7.00;99.90;;;;;;5032934;28;20392;-64
2023/10/17 01:31:39;;;;;;;7.38;4.22;;;7.00;99.90;;;;;;5032307;28;20052;-64
2023/10/17 01:34:08;;;;;;;8.13;4.28;;;7.00;99.90;;;;;;5033837;28;20037;-64
2023/10/17 01:36:35;;;;;;;6.95;4.28;;;7.00;99.90;;;;;;5031413;28;20049;-64
2023/10/17 01:39:05;;;;;;;8.35;4.28;;;7.00;99.90;;;;;;5030722;28;20042;-63
2023/10/17 01:41:31;;;;;;;7.30;3.88;;;7.00;99.90;;;;;;5031303;28;20073;-64
2023/10/17 01:43:57;;;;;;;8.13;4.13;;;7.00;99.90;;;;;;5031129;28;20068;-64
2023/10/17 01:46:23;;;;;;;6.55;3.63;;;7.00;99.90;;;;;;5031969;28;20037;-64
2023/10/17 01:48:50;;;;;;;6.40;3.90;;;7.00;99.90;;;;;;5032557;28;20040;-64
2023/10/17 01:51:16;;;;;;;8.38;3.63;;;7.00;99.90;;;;;;5033141;28;20049;-64
2023/10/17 01:53:43;;;;;;;6.78;3.80;;;7.00;99.90;;;;;;5028808;28;20514;-64
2023/10/17 01:56:15;;;;;;;8.35;3.70;;;7.00;99.90;;;;;;5031376;28;20101;-64
2023/10/17 01:58:45;;;;;;;8.20;4.43;;;7.00;99.90;;;;;;5030457;28;20093;-64
2023/10/17 02:01:14;;;;;;;11.23;4.10;;;7.00;99.90;;;;;;5025859;28;20041;-64
2023/10/17 02:03:40;;;;;;;7.85;4.35;;;7.00;99.90;;;;;;5030839;28;20052;-64
2023/10/17 02:06:15;;;;;;;8.77;4.03;;;7.00;99.90;;;;;;5028180;28;20037;-64
2023/10/17 02:08:42;;;;;;;6.38;3.85;;;7.00;99.90;;;;;;5023220;28;20060;-64
2023/10/17 02:11:12;;;;;;;8.13;3.60;;;7.00;99.90;;;;;;5026052;28;20044;-64
2023/10/17 02:13:41;;;;;;;5.57;3.50;;;6.90;99.90;;;;;;5030719;28;20056;-64
2023/10/17 02:16:07;;;;;;;9.10;3.63;;;7.00;99.90;;;;;;5030986;28;20040;-64
2023/10/17 02:18:33;;;;;;;8.40;3.85;;;6.90;99.90;;;;;;5029403;28;20565;-64
2023/10/17 02:21:04;;;;;;;8.23;3.83;;;6.90;99.90;;;;;;5025277;28;20060;-64
2023/10/17 02:23:39;;;;;;;6.90;3.75;;;6.90;99.90;;;;;;5038773;28;20044;-64
2023/10/17 02:26:09;;;;;;;10.20;3.72;;;6.90;99.90;;;;;;5026499;28;20045;-64
2023/10/17 02:28:44;;;;;;;6.70;3.90;;;6.90;99.90;;;;;;5027355;28;20049;-64
2023/10/17 02:31:15;;;;;;;7.82;3.90;;;6.90;99.90;;;;;;5029849;28;20044;-64
2023/10/17 02:33:43;;;;;;;7.10;3.63;;;6.90;99.90;;;;;;5030397;28;20041;-64
2023/10/17 02:36:12;;;;;;;6.90;3.53;;;6.80;99.90;;;;;;5029562;28;20376;-64
2023/10/17 02:38:41;;;;;;;8.90;3.88;;;6.80;99.90;;;;;;5029075;28;20132;-64
2023/10/17 02:41:18;;;;;;;6.70;3.33;;;6.80;99.90;;;;;;5020631;28;20044;-64
2023/10/17 02:43:45;;;;;;;5.90;3.00;;;6.70;99.90;;;;;;5026792;28;20041;-64
2023/10/17 02:46:14;;;;;;;7.15;3.65;;;6.70;99.90;;;;;;5029064;28;20051;-64
2023/10/17 02:48:42;;;;;;;6.72;3.00;;;6.70;99.90;;;;;;5026414;28;20376;-64
2023/10/17 02:53:55;;;;;;;5.22;3.08;;;6.70;99.90;;;;;;5024863;28;20042;-64
2023/10/17 02:56:22;;;;;;;7.68;3.35;;;6.60;99.90;;;;;;5025995;28;20091;-64
2023/10/17 02:58:49;;;;;;;6.65;3.35;;;6.60;99.90;;;;;;5017524;28;20068;-64
2023/10/17 03:01:15;;;;;;;7.40;3.58;;;6.30;99.90;;;;;;5022880;28;20049;-64
2023/10/17 03:03:42;;;;;;;7.00;3.35;;;6.60;99.90;;;;;;5028087;28;20471;-64
2023/10/17 03:06:08;;;;;;;6.63;3.45;;;6.60;99.90;;;;;;5023810;28;20483;-65
2023/10/17 03:08:36;;;;;;;6.97;3.17;;;6.60;99.90;;;;;;5029300;28;20049;-64
2023/10/17 03:11:02;;;;;;;10.30;3.90;;;6.60;99.90;;;;;;5005243;28;20476;-64
2023/10/17 03:13:40;;;;;;;11.07;3.47;;;6.60;99.90;;;;;;5026955;28;20446;-64
2023/10/17 03:16:26;;;;;;;7.35;3.20;;;6.50;99.90;;;;;;5029464;28;20045;-64
2023/10/17 03:18:52;;;;;;;9.23;3.88;;;6.50;99.90;;;;;;5021034;28;20041;-64
2023/10/17 03:21:30;;;;;;;9.07;3.83;;;6.50;99.90;;;;;;5021922;28;20152;-64
2023/10/17 03:24:00;;;;;;;5.57;3.58;;;6.50;99.90;;;;;;5023421;28;20483;-64
2023/10/17 03:26:26;;;;;;;5.55;3.55;;;6.50;99.90;;;;;;5026783;28;20451;-64
2023/10/17 03:28:51;;;;;;;7.30;3.40;;;6.50;99.90;;;;;;5026432;28;20069;-64
2023/10/17 03:31:26;;;;;;;8.07;3.75;;;6.50;99.90;;;;;;5026268;28;20403;-64
2023/10/17 03:33:52;;;;;;;7.68;3.45;;;6.50;99.90;;;;;;5023777;28;20033;-64
2023/10/17 03:36:41;;;;;;;8.20;3.80;;;6.50;99.90;;;;;;5023398;28;20045;-63
2023/10/17 03:39:27;;;;;;;8.85;3.60;;;6.40;99.90;;;;;;5023340;28;20128;-64
2023/10/17 03:41:56;;;;;;;6.18;3.45;;;6.40;99.90;;;;;;5030069;28;20029;-64
2023/10/17 03:44:30;;;;;;;9.18;4.00;;;6.40;99.90;;;;;;5026899;28;20037;-64
2023/10/17 03:46:59;;;;;;;8.43;3.60;;;6.40;99.90;;;;;;5028665;28;20037;-64
2023/10/17 03:49:25;;;;;;;7.38;3.38;;;6.40;99.90;;;;;;5024980;28;20038;-64
2023/10/17 03:51:54;;;;;;;6.78;3.50;;;6.40;99.90;;;;;;5028802;28;20510;-64
2023/10/17 03:54:22;;;;;;;6.00;3.40;;;6.30;99.90;;;;;;5028632;28;20051;-64
2023/10/17 03:57:02;;;;;;;7.55;3.78;;;6.30;99.90;;;;;;5028637;28;20120;-64
2023/10/17 03:59:51;;;;;;;6.80;3.80;;;6.30;99.90;;;;;;5022385;28;20495;-64
2023/10/17 04:02:20;;;;;;;7.97;3.63;;;6.30;99.90;;;;;;5024390;28;20407;-63
2023/10/17 04:04:55;;;;;;;5.63;2.78;;;6.30;99.90;;;;;;5019501;28;20033;-64
2023/10/17 04:07:23;;;;;;;7.15;3.40;;;6.20;99.90;;;;;;5026506;28;20474;-64
2023/10/17 04:12:23;;;;;;;6.75;3.58;;;6.20;99.90;;;;;;5026927;28;20057;-64
2023/10/17 04:14:58;;;;;;;7.65;3.33;;;6.20;99.90;;;;;;5025699;28;20041;-64
2023/10/17 04:17:29;;;;;;;10.98;3.60;;;6.10;99.90;;;;;;5027393;28;20257;-64
2023/10/17 04:19:58;;;;;;;6.68;3.50;;;6.10;99.90;;;;;;5015886;28;20461;-65
2023/10/17 04:22:29;;;;;;;6.63;3.47;;;6.10;99.90;;;;;;5026809;28;20040;-64
2023/10/17 04:25:00;;;;;;;7.10;3.13;;;6.10;99.90;;;;;;5011729;28;20484;-64
2023/10/17 04:27:32;;;;;;;7.80;3.80;;;6.10;99.90;;;;;;5018537;28;20473;-64
2023/10/17 04:29:58;;;;;;;6.70;2.97;;;6.80;99.90;;;;;;5021911;28;20045;-63
2023/10/17 04:32:34;;;;;;;7.90;3.10;;;6.10;99.90;;;;;;5024746;28;20041;-64
2023/10/17 04:35:02;;;;;;;6.10;2.90;;;6.10;99.90;;;;;;5027275;28;20487;-63
2023/10/17 04:37:34;;;;;;;5.10;3.08;;;6.10;99.90;;;;;;5032527;28;20556;-64
2023/10/17 04:45:19;;;;;;;7.57;3.43;;;6.00;99.90;;;;;;5029577;28;20041;-64
2023/10/17 04:48:00;;;;;;;4.75;2.97;;;6.00;99.90;;;;;;5029493;28;20040;-63
2023/10/17 04:50:40;;;;;;;7.82;3.42;;;6.00;99.90;;;;;;5040208;28;20033;-64
2023/10/17 04:53:06;;;;;;;7.85;3.33;;;6.00;99.90;;;;;;5028607;28;20510;-64
2023/10/17 04:55:40;;;;;;;6.63;3.38;;;6.00;99.90;;;;;;5035182;28;20033;-64
2023/10/17 04:58:30;;;;;;;6.63;3.40;;;6.00;99.90;;;;;;5023269;28;20045;-65
2023/10/17 05:03:27;;;;;;;7.95;3.15;;;5.90;99.90;;;;;;5032096;28;20323;-65
2023/10/17 05:06:10;;;;;;;6.43;3.28;;;5.90;99.90;;;;;;5031038;28;20034;-63
2023/10/17 05:09:00;;;;;;;8.27;3.42;;;5.90;99.90;;;;;;5029692;28;20037;-64
2023/10/17 06:17:20;;;;;;;7.97;3.30;;;5.60;99.90;;;;;;5025239;28;20053;-63
2023/10/17 06:19:46;;;;;;;6.30;3.00;;;5.60;99.90;;;;;;5036526;28;20786;-63
2023/10/17 06:32:48;;;;;;;6.88;3.67;;;5.50;99.90;;;;;;5018044;28;20053;-63
2023/10/17 06:35:20;;;;;;;6.95;3.72;;;5.50;99.90;;;;;;5043490;28;20046;-63
2023/10/17 06:37:49;;;;;;;7.88;4.13;;;5.50;99.90;;;;;;5026210;28;20244;-63
2023/10/17 06:40:16;;;;;;;7.95;3.78;;;5.50;99.90;;;;;;5030697;28;20041;-63
2023/10/17 06:42:58;;;;;;;7.88;3.67;;;5.50;99.90;;;;;;5031091;28;20112;-62
2023/10/17 06:45:23;;;;;;;10.60;4.07;;;5.50;99.90;;;;;;5027838;28;20073;-63
2023/10/17 06:47:49;;;;;;;6.22;3.60;;;5.50;99.90;;;;;;5027453;28;20180;-63
2023/10/17 06:55:38;;;;;;;10.75;3.78;;;5.50;99.90;;;;;;5029589;28;20050;-63
2023/10/17 06:58:10;;;;;;;9.60;3.95;;;5.50;99.90;;;;;;5017195;28;20049;-63
2023/10/17 07:03:14;;;;;;;7.43;4.18;;;5.50;99.90;;;;;;5029658;28;20385;-63
2023/10/17 07:05:40;;;;;;;7.63;3.90;;;5.60;99.90;;;;;;5012688;28;20087;-63
2023/10/17 07:08:13;;;;;;;7.53;4.13;;;5.60;99.90;;;;;;5027955;28;20037;-64
2023/10/17 07:10:40;;;;;;;7.95;4.30;;;5.60;99.90;;;;;;5051453;22;20037;-66
2023/10/17 07:13:48;;;;;;;10.70;4.70;;;5.60;99.90;;;;;;5037203;28;20040;-65
2023/10/17 07:16:16;;;;;;;10.20;3.95;;;5.70;99.90;;;;;;5033619;28;20037;-66
2023/10/17 07:18:45;;;;;;;8.88;4.10;;;5.70;99.90;;;;;;5025652;28;20048;-66
2023/10/17 07:21:15;;;;;;;7.13;4.18;;;5.70;99.90;;;;;;5026699;28;20037;-65
2023/10/17 07:23:45;;;;;;;10.13;4.55;;;5.70;99.90;;;;;;5021187;28;20507;-66
2023/10/17 07:28:57;;;;;;;12.02;5.65;;;5.70;99.90;;;;;;5031708;28;20053;-66
2023/10/17 07:31:23;;;;;;;9.57;5.50;;;5.80;99.90;;;;;;5029384;28;20092;-67
2023/10/17 07:34:07;;;;;;;12.13;5.85;;;5.80;99.90;;;;;;5010618;28;20478;-66
2023/10/17 07:36:34;;;;;;;10.95;5.20;;;5.90;99.90;;;;;;5036366;28;20404;-66
2023/10/17 07:39:05;;;;;;;11.80;6.00;;;6.00;99.90;;;;;;5013188;28;20038;-67
2023/10/17 07:41:37;;;;;;;10.32;6.10;;;6.00;99.90;;;;;;5031360;28;20041;-66
2023/10/17 07:44:17;;;;;;;11.45;6.30;;;6.00;99.90;;;;;;5021407;28;20045;-66
2023/10/17 07:46:48;;;;;;;12.55;6.55;;;6.00;99.90;;;;;;5030756;28;20041;-66
2023/10/17 07:49:16;;;;;;;12.63;6.50;;;6.10;99.90;;;;;;5032339;28;20052;-66
2023/10/17 07:51:42;;;;;;;14.27;7.32;;;6.10;99.90;;;;;;5034109;28;20048;-66
2023/10/17 07:54:08;;;;;;;14.52;6.80;;;6.20;99.90;;;;;;5036174;28;20048;-66
2023/10/17 07:56:34;;;;;;;14.48;7.65;;;6.20;99.90;;;;;;5024959;28;20488;-66
2023/10/17 07:59:15;;;;;;;12.25;7.30;;;6.30;99.90;;;;;;5035920;28;20042;-66
2023/10/17 08:01:43;;;;;;;15.00;8.05;;;6.30;99.90;;;;;;5036325;28;20108;-65
2023/10/17 08:06:42;;;;;;;14.05;7.28;;;6.40;99.90;;;;;;5028873;28;20484;-66
2023/10/17 08:11:52;;;;;;;10.80;6.97;;;6.50;99.90;;;;;;5026081;28;20152;-64
2023/10/17 08:14:40;;;;;;;13.55;7.28;;;6.50;99.90;;;;;;5039904;28;20491;-66
2023/10/17 08:17:08;;;;;;;11.68;6.32;;;6.60;99.90;;;;;;5018335;28;20034;-66
2023/10/17 08:22:18;;;;;;;6.93;5.10;;;6.70;99.90;;;;;;5041976;28;20124;-66
2023/10/17 08:24:51;;;;;;;10.90;5.78;;;6.80;99.90;;;;;;5026505;28;20125;-66
2023/10/17 08:30:05;;;;;;;10.20;5.45;;;6.90;99.90;;;;;;5023640;28;20037;-66
2023/10/17 08:32:39;;;;;;;10.63;5.10;;;7.00;99.90;;;;;;5041951;28;20048;-66
2023/10/17 08:35:10;;;;;;;12.23;4.80;;;7.00;99.90;;;;;;5025690;28;20284;-66
2023/10/17 08:37:43;;;;;;;8.82;4.82;;;7.10;99.90;;;;;;5025823;28;20054;-66
2023/10/17 08:40:29;;;;;;;8.73;5.07;;;7.10;99.90;;;;;;5035940;28;20488;-66
2023/10/17 08:43:06;;;;;;;10.93;4.72;;;7.10;99.90;;;;;;5012900;28;20044;-60
2023/10/17 08:45:37;;;;;;;9.60;4.93;;;7.20;99.90;;;;;;5025711;28;20034;-63
2023/10/17 08:48:06;;;;;;;10.60;5.10;;;7.20;99.90;;;;;;5035414;28;20044;-62
2023/10/17 08:50:38;;;;;;;11.38;4.82;;;7.30;99.90;;;;;;5035062;28;20076;-62
2023/10/17 08:53:08;;;;;;;620.90;41.25;;;7.30;99.90;;;;;;5033622;28;20045;-63
2023/10/17 08:55:34;;;;;;;47.17;7.07;;;7.40;99.90;;;;;;5005543;28;20083;-63
2023/10/17 08:58:00;;;;;;;53.20;7.50;;;7.50;99.90;;;;;;5023884;28;20069;-62
2023/10/17 09:03:29;;;;;;;13.80;4.47;;;7.60;99.90;;;;;;5020653;28;20045;-62
2023/10/17 09:06:38;;;;;;;11.93;3.83;;;7.60;99.90;;;;;;5044329;28;20040;-63
2023/10/17 09:11:14;;;;;;;14.10;3.60;;;7.80;99.90;;;;;;5035407;28;20048;-63
2023/10/17 09:14:10;;;;;;;8.32;3.03;;;7.80;99.90;;;;;;5020436;28;20499;-62
2023/10/17 09:16:34;;;;;;;4.88;2.70;;;7.80;99.90;;;;;;5024106;28;20489;-62
2023/10/17 09:19:09;;;;;;;7.03;3.25;;;7.90;99.90;;;;;;5032727;28;20037;-62
2023/10/17 09:21:39;;;;;;;7.57;3.00;;;7.90;99.90;;;;;;5025402;28;20064;-63
2023/10/17 09:24:05;;;;;;;7.07;2.70;;;7.90;99.90;;;;;;5037047;28;20041;-63
2023/10/17 09:26:31;;;;;;;7.22;2.58;;;8.00;99.90;;;;;;5035633;28;20105;-64
2023/10/17 09:29:00;;;;;;;11.98;2.95;;;8.10;99.90;;;;;;5043793;28;20561;-63
2023/10/17 09:31:26;;;;;;;12.60;3.05;;;8.10;99.90;;;;;;5029730;28;20073;-62
2023/10/17 09:34:04;;;;;;;5.03;2.13;;;8.20;99.90;;;;;;5021469;28;20041;-63
2023/10/17 09:36:30;;;;;;;7.05;2.20;;;8.20;99.90;;;;;;5015526;28;20059;-62
2023/10/17 09:38:57;;;;;;;9.55;2.70;;;8.30;99.90;;;;;;5030784;28;20046;-63
2023/10/17 09:41:23;;;;;;;4.75;1.80;;;8.30;99.90;;;;;;5026329;28;20038;-63
2023/10/17 09:43:51;;;;;;;4.00;1.83;;;8.40;99.90;;;;;;5033849;28;20044;-63
2023/10/17 09:46:23;;;;;;;4.95;1.95;;;8.40;99.90;;;;;;5029499;28;20116;-63
2023/10/17 09:48:51;;;;;;;5.40;1.80;;;8.50;99.90;;;;;;5029476;28;20077;-64
2023/10/17 09:51:27;;;;;;;5.97;1.70;;;8.50;99.90;;;;;;5034887;28;20405;-63
2023/10/17 09:53:54;;;;;;;4.93;1.42;;;8.60;99.90;;;;;;5033990;28;20044;-63
2023/10/17 09:56:29;;;;;;;4.93;1.35;;;8.70;99.90;;;;;;5014972;28;20041;-64
2023/10/17 09:59:07;;;;;;;5.20;1.42;;;8.70;99.90;;;;;;5041738;28;20077;-64
2023/10/17 10:01:35;;;;;;;3.72;1.48;;;8.70;99.90;;;;;;5024579;28;20079;-64
2023/10/17 10:04:01;;;;;;;4.95;1.50;;;8.70;99.90;;;;;;5034001;28;20041;-65
2023/10/17 10:06:32;;;;;;;3.60;1.60;;;8.80;99.90;;;;;;5033231;28;20176;-64
2023/10/17 10:09:13;;;;;;;3.53;1.70;;;8.80;99.90;;;;;;5037775;28;20041;-64
2023/10/17 10:11:53;;;;;;;4.20;1.55;;;8.90;99.90;;;;;;5028057;28;20395;-65
2023/10/17 10:14:28;;;;;;;3.20;1.90;;;9.00;99.90;;;;;;5036388;28;20098;-65
2023/10/17 10:16:55;;;;;;;3.42;1.73;;;9.10;99.90;;;;;;5022774;28;20033;-64
2023/10/17 10:19:21;;;;;;;4.72;1.50;;;9.20;99.90;;;;;;5020666;28;20480;-65
2023/10/17 10:22:00;;;;;;;4.38;1.25;;;9.30;99.90;;;;;;5036153;28;20033;-64
2023/10/17 10:24:33;;;;;;;4.20;1.50;;;9.40;99.90;;;;;;5031522;28;20095;-66
2023/10/17 10:27:14;;;;;;;4.30;1.40;;;9.60;99.90;;;;;;5008006;28;20132;-64
2023/10/17 10:29:40;;;;;;;3.92;1.38;;;9.70;99.90;;;;;;5026130;28;20038;-65
2023/10/17 10:32:26;;;;;;;4.85;1.20;;;9.90;99.90;;;;;;5020162;28;20047;-64
2023/10/17 10:34:53;;;;;;;3.85;1.40;;;10.10;99.90;;;;;;5019618;28;20429;-64
2023/10/17 10:37:22;;;;;;;2.55;1.08;;;10.30;99.90;;;;;;5018961;28;20038;-66
2023/10/17 10:42:58;;;;;;;3.50;1.10;;;10.70;99.90;;;;;;5026523;28;20041;-65
2023/10/17 10:45:40;;;;;;;3.70;1.15;;;10.90;99.90;;;;;;5007417;28;20033;-65
2023/10/17 10:48:17;;;;;;;4.70;1.63;;;11.10;99.90;;;;;;5013286;28;20061;-65
2023/10/17 10:50:48;;;;;;;3.08;1.40;;;11.20;99.90;;;;;;5005584;28;20037;-65
2023/10/17 10:53:31;;;;;;;7.77;1.63;;;11.40;99.90;;;;;;5002374;28;20103;-65
2023/10/17 10:56:00;;;;;;;3.95;1.27;;;11.50;99.90;;;;;;5021254;28;20029;-65
2023/10/17 10:58:27;;;;;;;3.42;1.30;;;11.70;99.90;;;;;;5020901;28;20041;-65
2023/10/17 11:00:54;;;;;;;2.15;1.33;;;11.70;99.90;;;;;;5002003;28;20037;-65
2023/10/17 11:03:22;;;;;;;5.93;1.50;;;11.90;99.90;;;;;;5023786;28;20040;-65
2023/10/17 11:05:55;;;;;;;5.88;1.27;;;12.00;99.90;;;;;;5021557;28;20626;-65
2023/10/17 11:08:22;;;;;;;5.15;1.65;;;12.10;99.90;;;;;;5010517;28;20038;-65
2023/10/17 11:10:48;;;;;;;2.92;1.20;;;12.10;99.90;;;;;;5024056;28;20037;-66
2023/10/17 11:13:15;;;;;;;2.63;1.10;;;12.20;99.90;;;;;;5002327;28;20120;-65
2023/10/17 11:15:43;;;;;;;3.45;1.20;;;12.30;99.90;;;;;;5012493;28;20041;-65
2023/10/17 11:18:10;;;;;;;3.63;1.15;;;12.30;99.90;;;;;;5015816;28;20105;-65
2023/10/17 11:20:40;;;;;;;3.70;1.10;;;12.40;99.90;;;;;;5029265;28;20098;-64
2023/10/17 11:23:08;;;;;;;2.22;0.90;;;12.50;99.90;;;;;;5021288;28;20118;-65
2023/10/17 11:25:34;;;;;;;4.45;1.30;;;12.60;99.90;;;;;;5032334;28;20033;-65
2023/10/17 11:28:06;;;;;;;3.53;1.02;;;12.60;99.90;;;;;;5028561;28;20038;-66
2023/10/17 11:30:40;;;;;;;3.05;1.15;;;12.70;99.90;;;;;;5029320;28;20400;-66
2023/10/17 11:33:10;;;;;;;3.22;1.10;;;12.70;99.90;;;;;;5006417;28;20045;-65
2023/10/17 11:35:37;;;;;;;3.58;1.08;;;12.80;99.90;;;;;;5033251;28;20037;-66
2023/10/17 11:38:03;;;;;;;5.72;1.30;;;12.90;99.90;;;;;;5023286;28;20334;-65
2023/10/17 11:40:38;;;;;;;3.95;1.20;;;12.90;99.90;;;;;;5038623;28;20505;-66
2023/10/17 11:43:20;;;;;;;3.10;1.05;;;13.00;99.90;;;;;;5031415;28;20052;-64
2023/10/17 11:45:46;;;;;;;;;;;13.00;99.90;;;;;;5027713;28;20164;-65
2023/10/17 11:48:33;;;;;;;4.03;1.10;;;13.00;99.90;;;;;;5028316;28;19972;-65
2023/10/17 11:51:18;;;;;;;3.85;1.23;;;13.00;99.90;;;;;;5015651;28;20040;-65
2023/10/17 11:54:07;;;;;;;6.10;1.63;;;13.10;99.90;;;;;;5028837;28;20124;-65
2023/10/17 11:56:37;;;;;;;3.42;1.20;;;13.10;99.90;;;;;;5013167;28;20052;-65
2023/10/17 11:59:06;;;;;;;2.53;1.10;;;13.00;99.90;;;;;;5027093;28;20037;-65
2023/10/17 12:01:33;;;;;;;2.78;1.20;;;13.10;99.90;;;;;;5025838;28;20038;-65
2023/10/17 12:04:08;;;;;;;5.90;1.10;;;13.10;99.90;;;;;;5033575;28;20090;-65
2023/10/17 12:06:34;;;;;;;2.20;0.98;;;13.10;99.90;;;;;;5032727;28;20038;-65
2023/10/17 12:09:17;;;;;;;2.20;1.15;;;13.10;99.90;;;;;;5026888;28;20140;-65
2023/10/17 12:11:46;;;;;;;4.38;1.60;;;13.10;99.90;;;;;;5003396;28;20096;-66
2023/10/17 12:14:19;;;;;;;4.60;1.10;;;13.20;99.90;;;;;;5020137;28;20043;-65
2023/10/17 12:16:48;;;;;;;3.95;1.20;;;13.10;99.90;;;;;;5022789;28;20041;-65
2023/10/17 12:19:17;;;;;;;4.97;1.13;;;13.20;99.90;;;;;;5007286;28;20092;-66
2023/10/17 12:21:47;;;;;;;3.47;1.27;;;13.20;99.90;;;;;;5019086;28;20034;-66
2023/10/17 12:24:16;;;;;;;5.63;1.30;;;13.30;99.90;;;;;;5032868;28;20092;-65
2023/10/17 12:26:45;;;;;;;2.42;1.17;;;13.30;99.90;;;;;;5026486;28;20048;-65
2023/10/17 12:29:12;;;;;;;4.95;1.33;;;13.30;99.90;;;;;;5017457;28;20041;-65
2023/10/17 12:31:39;;;;;;;5.35;1.42;;;13.40;99.90;;;;;;5033605;28;20037;-66
2023/10/17 12:34:07;;;;;;;2.88;1.30;;;13.40;99.90;;;;;;5020412;28;20087;-65
2023/10/17 12:36:36;;;;;;;4.80;1.50;;;13.40;99.90;;;;;;5026532;28;20446;-65
2023/10/17 12:39:06;;;;;;;3.92;1.50;;;13.40;99.90;;;;;;5022712;28;20560;-65
2023/10/17 12:41:35;;;;;;;3.45;1.30;;;13.40;99.90;;;;;;5037757;28;20556;-65
2023/10/17 12:44:01;;;;;;;2.33;1.20;;;13.40;99.90;;;;;;5034879;28;20034;-65
2023/10/17 12:46:27;;;;;;;5.22;1.40;;;13.40;99.90;;;;;;5030325;28;20029;-66
2023/10/17 12:48:52;;;;;;;3.47;1.30;;;13.40;99.90;;;;;;5026447;28;20395;-66
2023/10/17 12:51:20;;;;;;;2.22;1.23;;;13.50;99.90;;;;;;5022682;28;20068;-65
2023/10/17 12:53:46;;;;;;;2.63;1.50;;;13.50;99.90;;;;;;5036712;28;20048;-66
2023/10/17 12:56:12;;;;;;;4.20;1.48;;;13.40;99.90;;;;;;5015977;28;20083;-65
2023/10/17 12:58:38;;;;;;;5.28;1.65;;;13.40;99.90;;;;;;5041443;28;20045;-66
2023/10/17 13:01:04;;;;;;;4.47;1.38;;;13.40;99.90;;;;;;5029084;28;20045;-65
2023/10/17 13:03:36;;;;;;;3.90;1.30;;;13.40;99.90;;;;;;5042873;28;20041;-65
2023/10/17 13:06:02;;;;;;;3.78;1.58;;;13.40;99.90;;;;;;5030131;28;20553;-65
2023/10/17 13:08:28;;;;;;;2.58;1.45;;;13.40;99.90;;;;;;5032800;28;20099;-65
2023/10/17 13:10:55;;;;;;;3.92;1.58;;;13.50;99.90;;;;;;5046236;28;20044;-65
2023/10/17 13:13:24;;;;;;;5.53;1.55;;;13.50;99.90;;;;;;5038168;28;20038;-66
2023/10/17 13:15:50;;;;;;;3.40;1.60;;;13.40;99.90;;;;;;5039735;28;20048;-65
2023/10/17 13:18:16;;;;;;;4.68;1.88;;;13.50;99.90;;;;;;5037451;28;20037;-65
2023/10/17 13:20:48;;;;;;;5.55;1.80;;;13.50;99.90;;;;;;5038308;28;20539;-65
2023/10/17 13:23:16;;;;;;;3.13;1.58;;;13.50;99.90;;;;;;5037270;28;20075;-65
2023/10/17 13:25:42;;;;;;;5.25;1.63;;;13.50;99.90;;;;;;5037827;28;20534;-66
2023/10/17 13:28:07;;;;;;;3.80;1.52;;;13.50;99.90;;;;;;5007058;28;20045;-65
2023/10/17 13:30:33;;;;;;;6.70;1.77;;;13.40;99.90;;;;;;5030481;28;20042;-65
2023/10/17 13:32:59;;;;;;;3.83;1.75;;;13.40;99.90;;;;;;5011244;28;20807;-65
2023/10/17 13:35:24;;;;;;;3.00;1.45;;;13.40;99.90;;;;;;5010620;28;20411;-66
2023/10/17 13:37:54;;;;;;;5.57;1.50;;;13.30;99.90;;;;;;5024566;28;20037;-65
2023/10/17 13:40:22;;;;;;;5.90;1.40;;;13.30;99.90;;;;;;5024716;28;20041;-65
2023/10/17 13:42:52;;;;;;;4.15;1.50;;;13.30;99.90;;;;;;5036743;28;20036;-65
2023/10/17 13:45:21;;;;;;;3.85;1.50;;;13.30;99.90;;;;;;5026420;28;20053;-65
2023/10/17 13:47:48;;;;;;;6.55;1.67;;;13.30;99.90;;;;;;5044052;28;20044;-65
2023/10/17 13:50:15;;;;;;;5.10;1.50;;;13.30;99.90;;;;;;5019293;28;20049;-65
2023/10/17 13:52:46;;;;;;;1.98;1.30;;;13.30;99.90;;;;;;5026194;28;20038;-66
2023/10/17 13:55:14;;;;;;;4.00;1.27;;;13.20;99.90;;;;;;5024091;28;20045;-66
2023/10/17 13:57:46;;;;;;;3.58;1.50;;;13.20;99.90;;;;;;5032657;28;20052;-65
2023/10/17 14:00:19;;;;;;;3.38;1.67;;;13.20;99.90;;;;;;5024026;28;20491;-65
2023/10/17 14:02:49;;;;;;;4.35;1.55;;;13.10;99.90;;;;;;5020738;28;20388;-65
2023/10/17 14:05:16;;;;;;;5.32;1.55;;;13.10;99.90;;;;;;5028585;28;20108;-65
2023/10/17 14:07:43;;;;;;;3.47;1.30;;;13.00;99.90;;;;;;5034708;28;20060;-65
2023/10/17 14:10:11;;;;;;;3.58;1.50;;;13.00;99.90;;;;;;5008134;28;20050;-65
2023/10/17 14:12:40;;;;;;;3.78;1.35;;;13.00;99.90;;;;;;5007877;28;20054;-66
2023/10/17 14:15:07;;;;;;;6.05;1.60;;;13.00;99.90;;;;;;5009946;28;20037;-65
2023/10/17 14:17:33;;;;;;;3.05;1.20;;;13.00;99.90;;;;;;5025424;28;20045;-65
2023/10/17 14:20:05;;;;;;;3.38;1.63;;;12.90;99.90;;;;;;5021177;28;20036;-65
2023/10/17 14:22:38;;;;;;;4.13;1.58;;;12.90;99.90;;;;;;5020629;28;20441;-67
2023/10/17 14:25:07;;;;;;;2.75;1.48;;;12.80;99.90;;;;;;5022384;28;20384;-66
2023/10/17 14:27:32;;;;;;;2.70;1.40;;;12.80;99.90;;;;;;5025186;28;20045;-66
2023/10/17 14:29:59;;;;;;;6.22;1.50;;;12.70;99.90;;;;;;5005035;28;20158;-66
2023/10/17 14:32:28;;;;;;;3.97;1.50;;;12.70;99.90;;;;;;5008490;28;20041;-67
2023/10/17 14:34:54;;;;;;;2.92;1.20;;;12.70;99.90;;;;;;5013475;28;20037;-66
2023/10/17 14:37:22;;;;;;;6.18;1.52;;;12.60;99.90;;;;;;5023877;28;20045;-66
2023/10/17 14:39:48;;;;;;;3.40;1.65;;;12.60;99.90;;;;;;5026357;28;20029;-65
2023/10/17 14:42:14;;;;;;;4.72;1.42;;;12.60;99.90;;;;;;5026030;28;20546;-66
2023/10/17 14:44:45;;;;;;;5.28;1.40;;;12.60;99.90;;;;;;5035641;28;20090;-66
2023/10/17 14:47:16;;;;;;;3.47;1.47;;;12.60;99.90;;;;;;5026555;28;20033;-65
2023/10/17 14:49:43;;;;;;;3.17;1.50;;;12.50;99.90;;;;;;5019927;28;20389;-65
2023/10/17 14:52:08;;;;;;;4.50;1.50;;;12.50;99.90;;;;;;5037901;28;20033;-66
2023/10/17 14:54:34;;;;;;;3.75;1.20;;;12.50;99.90;;;;;;5036419;28;20102;-66
2023/10/17 14:57:06;;;;;;;3.22;1.35;;;12.40;99.90;;;;;;5030763;28;20037;-66
2023/10/17 14:59:34;;;;;;;4.55;1.58;;;12.40;99.90;;;;;;5017321;28;20133;-67
2023/10/17 15:02:02;;;;;;;2.30;1.23;;;12.30;99.90;;;;;;5029039;28;20036;-65
2023/10/17 15:04:28;;;;;;;4.85;1.40;;;12.30;99.90;;;;;;5020312;28;20041;-65
2023/10/17 15:06:54;;;;;;;3.80;1.45;;;12.30;99.90;;;;;;5030925;28;20282;-65
2023/10/17 15:09:21;;;;;;;3.47;1.42;;;12.30;99.90;;;;;;5029388;28;20052;-65